Quasimodo — DC7624 — position and weather

sailwx.info

Track history (hours):
 
Tides and Currents Weather Stations Pressure Air Temp Water Temp Dewpoint Dewpoint Depression Visibility Wind Speed Wind Dir Waves Ship Positions

Quasimodo

Last reported at 2017-Nov-11 15:03 UTC. Time now 2017-Nov-24 20:46 UTC.
Position N 44°17' E 028°04'.
Warning: this ship's position is 13 days out of date.

Length 110 m; draft 0.2 m.

Type: Ship. MMSI: 2525526.

Date/timePositionNaut miles runAvg speedWind from/ knotsBaromVisibWave heightAir tempDewpointWater temp
2017-Nov-11 15:03N 44°17' E 028°04'0 7.0
2017-Nov-11 15:00N 44°17' E 028°04'3 6.9
2017-Nov-11 14:30N 44°16' E 028°09'4 7.1
2017-Nov-11 14:00N 44°15' E 028°14'4 7.1
2017-Nov-11 13:30N 44°15' E 028°19'3 6.3
2017-Nov-11 13:00N 44°14' E 028°22'3 6.9
2017-Nov-11 12:30N 44°10' E 028°24'7 6.2
2017-Nov-11 11:26N 44°06' E 028°31'3 6.9
2017-Nov-11 11:00N 44°06' E 028°35'1 2.7
2017-Nov-11 10:31N 44°06' E 028°37'0 0.7
2017-Nov-11 10:00N 44°06' E 028°38'1 2.5
2017-Nov-11 09:30N 44°07' E 028°39'0 0.2
2017-Nov-11 09:00N 44°07' E 028°39'0 0.0
2017-Nov-11 08:31N 44°07' E 028°39'0 0.0
2017-Nov-11 08:00N 44°07' E 028°39'1 1.7
2017-Nov-11 07:30N 44°06' E 028°39'0 0.0
2017-Nov-11 07:00N 44°06' E 028°39'0 0.0
2017-Nov-11 06:30N 44°06' E 028°39'1 1.6
2017-Nov-11 06:00N 44°07' E 028°39'0 0.0
2017-Nov-11 05:30N 44°07' E 028°39'0 0.0
2017-Nov-11 05:00N 44°07' E 028°39'0 0.0
2017-Nov-11 04:30N 44°07' E 028°39'0 0.0
2017-Nov-11 04:00N 44°07' E 028°39'0 0.0
2017-Nov-11 03:30N 44°07' E 028°39'0 0.0
2017-Nov-11 03:00N 44°07' E 028°39'0 0.0
2017-Nov-11 02:30N 44°07' E 028°39'0 0.0
2017-Nov-11 02:00N 44°07' E 028°39'0 0.0
2017-Nov-11 01:30N 44°07' E 028°39'0 0.0
2017-Nov-11 01:00N 44°07' E 028°39'0 0.0
2017-Nov-11 00:30N 44°07' E 028°39'0 0.0
2017-Nov-11 00:00N 44°07' E 028°39'0 0.0
2017-Nov-10 23:30N 44°07' E 028°39'0 0.0
2017-Nov-10 23:00N 44°07' E 028°39'0 0.0
2017-Nov-10 22:30N 44°07' E 028°39'2 3.5
2017-Nov-10 22:00N 44°08' E 028°39'1 2.3
2017-Nov-10 21:30N 44°10' E 028°39'0 0.0
2017-Nov-10 21:00N 44°10' E 028°39'0 0.0
2017-Nov-10 20:30N 44°10' E 028°39'0 0.0
2017-Nov-10 20:00N 44°10' E 028°39'0 0.0
2017-Nov-10 19:30N 44°10' E 028°39'0 0.0
2017-Nov-10 19:00N 44°10' E 028°39'0 0.0
2017-Nov-10 18:30N 44°10' E 028°39'0 0.0
2017-Nov-10 18:00N 44°10' E 028°39'0 0.0
2017-Nov-10 17:30N 44°10' E 028°39'0 0.0
2017-Nov-10 17:00N 44°10' E 028°39'0 0.0
2017-Nov-10 16:30N 44°10' E 028°39'0 0.0
2017-Nov-10 16:00N 44°10' E 028°39'0 0.0
2017-Nov-10 15:30N 44°10' E 028°39'0 0.0
2017-Nov-10 15:00N 44°10' E 028°39'0 0.0
2017-Nov-10 14:30N 44°10' E 028°39'0 0.0
2017-Nov-10 14:00N 44°10' E 028°39'0 0.0
2017-Nov-10 13:30N 44°10' E 028°39'0 0.0
2017-Nov-10 13:00N 44°10' E 028°39'0 0.0
2017-Nov-10 12:30N 44°10' E 028°39'0 0.0
2017-Nov-10 12:00N 44°10' E 028°39'0 0.0
2017-Nov-10 11:30N 44°10' E 028°39'0 0.0
2017-Nov-10 11:00N 44°10' E 028°39'0 0.0
2017-Nov-10 10:30N 44°10' E 028°39'0 0.0
2017-Nov-10 10:00N 44°10' E 028°39'0 0.1
2017-Nov-10 09:30N 44°10' E 028°39'0 0.0
2017-Nov-10 09:00N 44°10' E 028°39'0 0.0
2017-Nov-10 08:30N 44°10' E 028°39'0 0.0
2017-Nov-10 08:00N 44°10' E 028°39'0 0.0
2017-Nov-10 07:30N 44°10' E 028°39'0 0.0
2017-Nov-10 07:01N 44°10' E 028°39'0 0.0
2017-Nov-10 06:30N 44°10' E 028°39'0 0.0
2017-Nov-10 06:00N 44°10' E 028°39'0 0.0
2017-Nov-10 05:30N 44°10' E 028°39'0 0.0
2017-Nov-10 05:00N 44°10' E 028°39'0 0.0
2017-Nov-10 04:31N 44°10' E 028°39'0 0.0
2017-Nov-10 04:00N 44°10' E 028°39'0 0.0
2017-Nov-10 03:30N 44°10' E 028°39'0 0.0
2017-Nov-10 03:00N 44°10' E 028°39'0 0.0
2017-Nov-10 02:30N 44°10' E 028°39'0 0.0
2017-Nov-10 02:00N 44°10' E 028°39'0 0.0
2017-Nov-10 01:30N 44°10' E 028°39'0 0.0
2017-Nov-10 01:00N 44°10' E 028°39'0 0.0
2017-Nov-10 00:30N 44°10' E 028°39'0 0.0
2017-Nov-10 00:00N 44°10' E 028°39'0 0.0
2017-Nov-09 23:30N 44°10' E 028°39'0 0.0
2017-Nov-09 23:00N 44°10' E 028°39'0 0.0
2017-Nov-09 22:30N 44°10' E 028°39'0 0.0
2017-Nov-09 22:00N 44°10' E 028°39'0 0.0
2017-Nov-09 21:30N 44°10' E 028°39'0 0.0
2017-Nov-09 21:01N 44°10' E 028°39'0 0.0
2017-Nov-09 20:30N 44°10' E 028°39'0 0.0
2017-Nov-09 20:00N 44°10' E 028°39'0 0.0
2017-Nov-09 19:30N 44°10' E 028°39'0 0.0
2017-Nov-09 19:00N 44°10' E 028°39'0 0.0
2017-Nov-09 18:30N 44°10' E 028°39'0 0.0
2017-Nov-09 18:01N 44°10' E 028°39'0 0.0
2017-Nov-09 17:30N 44°10' E 028°39'0 0.0
2017-Nov-09 17:00N 44°10' E 028°39'0 0.0
2017-Nov-09 16:31N 44°10' E 028°39'0 0.0
2017-Nov-09 16:00N 44°10' E 028°39'0 0.0
2017-Nov-09 15:30N 44°10' E 028°39'0 0.0
2017-Nov-09 15:00N 44°10' E 028°39'0 0.0
2017-Nov-09 14:30N 44°10' E 028°39'0 0.0
2017-Nov-09 14:00N 44°10' E 028°39'0 0.0
2017-Nov-09 13:30N 44°10' E 028°39'0 0.0
2017-Nov-09 13:00N 44°10' E 028°39'0 0.0
2017-Nov-09 12:30N 44°10' E 028°39'0 0.0
2017-Nov-09 12:00N 44°10' E 028°39'0 0.0
2017-Nov-09 11:30N 44°10' E 028°39'0 0.0
2017-Nov-09 11:00N 44°10' E 028°39'0 0.0
2017-Nov-09 10:30N 44°10' E 028°39'0 0.0
2017-Nov-09 10:01N 44°10' E 028°39'1 2.1
2017-Nov-09 09:30N 44°09' E 028°40'2 4.6
2017-Nov-09 09:00N 44°07' E 028°39'0 0.0
2017-Nov-09 08:30N 44°07' E 028°39'0 0.0
2017-Nov-09 08:00N 44°07' E 028°39'0 0.0
2017-Nov-09 07:30N 44°07' E 028°39'0 0.0
2017-Nov-09 07:00N 44°07' E 028°39'0 0.0
2017-Nov-09 06:31N 44°07' E 028°39'0 0.0
2017-Nov-09 06:00N 44°07' E 028°39'0 0.0
2017-Nov-09 05:30N 44°07' E 028°39'0 0.0
2017-Nov-09 05:00N 44°07' E 028°39'0 0.0
2017-Nov-09 04:30N 44°07' E 028°39'0 0.0
2017-Nov-09 04:00N 44°07' E 028°39'0 0.0
2017-Nov-09 03:30N 44°07' E 028°39'0 0.0
2017-Nov-09 03:00N 44°07' E 028°39'0 0.0
2017-Nov-09 02:31N 44°07' E 028°39'0 0.0
2017-Nov-09 02:01N 44°07' E 028°39'0 0.0
2017-Nov-09 01:30N 44°07' E 028°39'0 0.0
2017-Nov-09 01:00N 44°07' E 028°39'0 0.0
2017-Nov-09 00:30N 44°07' E 028°39'0 0.0
2017-Nov-09 00:01N 44°07' E 028°39'0 0.0
2017-Nov-08 23:30N 44°07' E 028°39'0 0.0
2017-Nov-08 23:00N 44°07' E 028°39'0 0.0
2017-Nov-08 22:30N 44°07' E 028°39'0 0.0
2017-Nov-08 22:00N 44°07' E 028°39'0 0.0
2017-Nov-08 21:30N 44°07' E 028°39'0 0.0
2017-Nov-08 21:00N 44°07' E 028°39'0 0.0
2017-Nov-08 20:30N 44°07' E 028°39'0 0.0
2017-Nov-08 20:00N 44°07' E 028°39'0 0.0
2017-Nov-08 19:31N 44°07' E 028°39'0 0.0
2017-Nov-08 19:00N 44°07' E 028°39'0 0.0
2017-Nov-08 18:30N 44°07' E 028°39'0 0.0
2017-Nov-08 18:00N 44°07' E 028°39'0 0.0
2017-Nov-08 17:30N 44°07' E 028°39'0 0.0
2017-Nov-08 17:00N 44°07' E 028°39'0 0.0
2017-Nov-08 16:30N 44°07' E 028°39'0 0.0
2017-Nov-08 16:00N 44°07' E 028°39'0 0.0
2017-Nov-08 15:30N 44°07' E 028°39'0 0.0
2017-Nov-08 15:01N 44°07' E 028°39'0 0.0
2017-Nov-08 14:30N 44°07' E 028°39'0 0.0
2017-Nov-08 14:00N 44°07' E 028°39'0 0.0
2017-Nov-08 13:31N 44°07' E 028°39'0 0.0
2017-Nov-08 13:00N 44°07' E 028°39'0 0.0
2017-Nov-08 12:30N 44°07' E 028°39'0 0.0
2017-Nov-08 12:00N 44°07' E 028°39'0 0.0
2017-Nov-08 11:31N 44°07' E 028°39'0 0.0
2017-Nov-08 11:00N 44°07' E 028°39'0 0.0
2017-Nov-08 10:30N 44°07' E 028°39'0 0.0
2017-Nov-08 10:00N 44°07' E 028°39'0 0.0
2017-Nov-08 09:30N 44°07' E 028°39'0 0.0
2017-Nov-08 09:00N 44°07' E 028°39'0 0.0
2017-Nov-08 08:31N 44°07' E 028°39'0 0.0
2017-Nov-08 08:00N 44°07' E 028°39'0 0.0
2017-Nov-08 07:30N 44°07' E 028°39'0 0.0
2017-Nov-08 07:01N 44°07' E 028°39'0 0.0
2017-Nov-08 06:30N 44°07' E 028°39'0 0.0
2017-Nov-08 06:00N 44°07' E 028°39'0 0.0
2017-Nov-08 05:30N 44°07' E 028°39'0 0.0
2017-Nov-08 05:01N 44°07' E 028°39'0 0.0
2017-Nov-08 04:30N 44°07' E 028°39'0 0.0
2017-Nov-08 04:01N 44°07' E 028°39'0 0.0
2017-Nov-08 03:30N 44°07' E 028°39'0 0.0
2017-Nov-08 03:01N 44°07' E 028°39'0 0.0
2017-Nov-08 02:30N 44°07' E 028°39'0 0.0
2017-Nov-08 02:01N 44°07' E 028°39'0 0.0
2017-Nov-08 01:30N 44°07' E 028°39'0 0.0
2017-Nov-08 01:00N 44°07' E 028°39'0 0.0
2017-Nov-08 00:31N 44°07' E 028°39'0 0.0
2017-Nov-08 00:00N 44°07' E 028°39'0 0.0
2017-Nov-07 23:30N 44°07' E 028°39'0 0.0
2017-Nov-07 23:00N 44°07' E 028°39'0 0.0
2017-Nov-07 22:30N 44°07' E 028°39'0 0.0
2017-Nov-07 22:00N 44°07' E 028°39'0 0.0
2017-Nov-07 21:30N 44°07' E 028°39'0 0.0
2017-Nov-07 21:01N 44°07' E 028°39'0 0.0
2017-Nov-07 20:30N 44°07' E 028°39'0 0.0
2017-Nov-07 20:00N 44°07' E 028°39'0 0.0
2017-Nov-07 19:30N 44°07' E 028°39'0 0.0
2017-Nov-07 19:00N 44°07' E 028°39'0 0.0
2017-Nov-07 18:30N 44°07' E 028°39'0 0.0
2017-Nov-07 18:00N 44°07' E 028°39'0 0.0
2017-Nov-07 17:30N 44°07' E 028°39'0 0.0
2017-Nov-07 17:00N 44°07' E 028°39'0 0.0
2017-Nov-07 16:30N 44°07' E 028°39'0 0.0
2017-Nov-07 16:00N 44°07' E 028°39'0 0.0
2017-Nov-07 15:30N 44°07' E 028°39'0 0.0
2017-Nov-07 15:01N 44°07' E 028°39'0 0.0
2017-Nov-07 14:30N 44°07' E 028°39'0 0.0
2017-Nov-07 14:00N 44°07' E 028°39'0 0.0
2017-Nov-07 13:30N 44°07' E 028°39'0 0.0
2017-Nov-07 13:00N 44°07' E 028°39'0 0.0
2017-Nov-07 12:30N 44°07' E 028°39'0 0.0
2017-Nov-07 12:00N 44°07' E 028°39'0 0.0
2017-Nov-07 11:30N 44°07' E 028°39'0 0.0
2017-Nov-07 11:00N 44°07' E 028°39'0 0.0
2017-Nov-07 10:30N 44°07' E 028°39'0 0.0
2017-Nov-07 10:00N 44°07' E 028°39'0 0.0
2017-Nov-07 09:31N 44°07' E 028°39'0 0.0
2017-Nov-07 09:00N 44°07' E 028°39'0 0.0
2017-Nov-07 08:30N 44°07' E 028°39'0 0.0
2017-Nov-07 08:00N 44°07' E 028°39'0 0.0
2017-Nov-07 07:30N 44°07' E 028°39'0 0.0
2017-Nov-07 07:00N 44°07' E 028°39'0 0.0
2017-Nov-07 06:30N 44°07' E 028°39'0 0.0
2017-Nov-07 06:00N 44°07' E 028°39'0 0.0
2017-Nov-07 05:30N 44°07' E 028°39'0 0.0
2017-Nov-07 05:00N 44°07' E 028°39'0 0.0
2017-Nov-07 04:30N 44°07' E 028°39'0 0.0
2017-Nov-07 04:00N 44°07' E 028°39'0 0.0
2017-Nov-07 03:30N 44°07' E 028°39'0 0.0
2017-Nov-07 03:00N 44°07' E 028°39'0 0.0
2017-Nov-07 02:30N 44°07' E 028°39'0 0.0
2017-Nov-07 02:00N 44°07' E 028°39'0 0.0
2017-Nov-07 01:30N 44°07' E 028°39'0 0.0
2017-Nov-07 01:00N 44°07' E 028°39'0 0.0
2017-Nov-07 00:30N 44°07' E 028°39'0 0.0
2017-Nov-07 00:00N 44°07' E 028°39'0 0.0
2017-Nov-06 23:30N 44°07' E 028°39'0 0.0
2017-Nov-06 23:00N 44°07' E 028°39'0 0.0
2017-Nov-06 22:30N 44°07' E 028°39'0 0.0
2017-Nov-06 22:00N 44°07' E 028°39'0 0.0
2017-Nov-06 21:30N 44°07' E 028°39'0 0.0
2017-Nov-06 21:00N 44°07' E 028°39'0 0.0
2017-Nov-06 20:30N 44°07' E 028°39'0 0.0
2017-Nov-06 02:30N 44°07' E 028°39'0 0.0
2017-Nov-06 02:00N 44°07' E 028°39'0 0.0
2017-Nov-06 01:30N 44°07' E 028°39'0 0.0
2017-Nov-06 01:00N 44°07' E 028°39'0 0.0
2017-Nov-06 00:30N 44°07' E 028°39'0 0.0
2017-Nov-06 00:00N 44°07' E 028°39'0 0.0
2017-Nov-05 23:30N 44°07' E 028°39'0 0.0
2017-Nov-05 23:00N 44°07' E 028°39'0 0.0
2017-Nov-05 22:30N 44°07' E 028°39'0 0.0
2017-Nov-05 22:00N 44°07' E 028°39'0 0.0
2017-Nov-05 21:30N 44°07' E 028°39'0 0.0
2017-Nov-05 21:00N 44°07' E 028°39'0 0.0
2017-Nov-05 20:30N 44°07' E 028°39'0 0.0
2017-Nov-05 20:00N 44°07' E 028°39'0 0.0
2017-Nov-05 19:30N 44°07' E 028°39'0 0.0
2017-Nov-05 19:00N 44°07' E 028°39'0 0.0
2017-Nov-05 18:30N 44°07' E 028°39'0 0.0
2017-Nov-05 18:00N 44°07' E 028°39'0 0.0
2017-Nov-05 17:30N 44°07' E 028°39'0 0.0
2017-Nov-05 17:00N 44°07' E 028°39'0 0.0
2017-Nov-05 16:30N 44°07' E 028°39'0 0.0
2017-Nov-05 16:00N 44°07' E 028°39'0 0.0
2017-Nov-05 15:30N 44°07' E 028°39'0 0.0
2017-Nov-05 15:00N 44°07' E 028°39'0 0.0
2017-Nov-05 14:30N 44°07' E 028°39'0 0.0
2017-Nov-05 14:00N 44°07' E 028°39'0 0.0
2017-Nov-05 13:31N 44°07' E 028°39'0 0.0
2017-Nov-05 13:00N 44°07' E 028°39'0 0.0
2017-Nov-05 12:30N 44°07' E 028°39'0 0.0
2017-Nov-05 12:00N 44°07' E 028°39'0 0.0
2017-Nov-05 11:30N 44°07' E 028°39'0 0.0
2017-Nov-05 11:00N 44°07' E 028°39'0 0.0
2017-Nov-05 10:30N 44°07' E 028°39'0 0.0
2017-Nov-05 10:00N 44°07' E 028°39'0 0.0
2017-Nov-05 09:30N 44°07' E 028°39'0 0.0
2017-Nov-05 09:00N 44°07' E 028°39'0 0.0
2017-Nov-05 08:30N 44°07' E 028°39'0 0.0
2017-Nov-05 08:00N 44°07' E 028°39'0 0.0
2017-Nov-05 07:30N 44°07' E 028°39'0 0.0
2017-Nov-05 07:00N 44°07' E 028°39'0 0.0
2017-Nov-05 06:30N 44°07' E 028°39'0 0.0
2017-Nov-05 06:00N 44°07' E 028°39'0 0.0
2017-Nov-05 05:30N 44°07' E 028°39'0 0.0
2017-Nov-05 05:00N 44°07' E 028°39'0 0.0
2017-Nov-05 04:30N 44°07' E 028°39'0 0.0
2017-Nov-05 04:00N 44°07' E 028°39'0 0.0
2017-Nov-05 03:30N 44°07' E 028°39'0 0.0
2017-Nov-05 03:00N 44°07' E 028°39'0 0.0
2017-Nov-05 02:30N 44°07' E 028°39'0 0.0
2017-Nov-05 02:00N 44°07' E 028°39'0 0.0
2017-Nov-05 01:30N 44°07' E 028°39'0 0.0
2017-Nov-05 01:00N 44°07' E 028°39'0 0.0
2017-Nov-05 00:30N 44°07' E 028°39'0 0.0
2017-Nov-05 00:00N 44°07' E 028°39'0 0.0
2017-Nov-04 23:30N 44°07' E 028°39'0 0.0
2017-Nov-04 23:00N 44°07' E 028°39'0 0.0
2017-Nov-04 22:30N 44°07' E 028°39'0 0.0
2017-Nov-04 22:00N 44°07' E 028°39'0 0.0
2017-Nov-04 21:30N 44°07' E 028°39'0 0.0
2017-Nov-04 21:00N 44°07' E 028°39'0 0.0
2017-Nov-04 20:30N 44°07' E 028°39'0 0.0
2017-Nov-04 20:00N 44°07' E 028°39'0 0.0
2017-Nov-04 19:30N 44°07' E 028°39'0 0.0
2017-Nov-04 19:00N 44°07' E 028°39'0 0.0
2017-Nov-04 18:30N 44°07' E 028°39'0 0.0
2017-Nov-04 18:00N 44°07' E 028°39'0 0.0
2017-Nov-04 17:30N 44°07' E 028°39'0 0.0
2017-Nov-04 17:00N 44°07' E 028°39'0 0.0
2017-Nov-04 16:30N 44°07' E 028°39'0 0.0
2017-Nov-04 16:00N 44°07' E 028°39'0 0.0
2017-Nov-04 15:30N 44°07' E 028°39'0 0.0
2017-Nov-04 15:00N 44°07' E 028°39'0 0.0
2017-Nov-04 14:30N 44°07' E 028°39'0 0.0
2017-Nov-04 14:00N 44°07' E 028°39'0 0.0
2017-Nov-04 13:30N 44°07' E 028°39'0 0.0
2017-Nov-04 13:00N 44°07' E 028°39'0 0.0
2017-Nov-04 12:30N 44°07' E 028°39'0 0.0
2017-Nov-04 12:00N 44°07' E 028°39'0 0.0
2017-Nov-04 11:30N 44°07' E 028°39'0 0.0
2017-Nov-04 11:00N 44°07' E 028°39'0 0.0
2017-Nov-04 10:30N 44°07' E 028°39'0 0.0
2017-Nov-04 10:00N 44°07' E 028°39'0 0.0
2017-Nov-04 09:30N 44°07' E 028°39'0 0.0
2017-Nov-04 09:00N 44°07' E 028°39'0 0.0
2017-Nov-04 08:30N 44°07' E 028°39'0 0.0
2017-Nov-04 08:00N 44°07' E 028°39'0 0.0
2017-Nov-04 07:31N 44°07' E 028°39'0 0.0
2017-Nov-04 07:00N 44°07' E 028°39'0 0.0
2017-Nov-04 06:30N 44°07' E 028°39'0 0.0
2017-Nov-04 06:00N 44°07' E 028°39'0 0.0
2017-Nov-04 05:30N 44°07' E 028°39'0 0.0
2017-Nov-04 05:00N 44°07' E 028°39'0 0.0
2017-Nov-04 04:30N 44°07' E 028°39'0 0.0
2017-Nov-04 04:00N 44°07' E 028°39'0 0.0
2017-Nov-04 03:30N 44°07' E 028°39'0 0.0
2017-Nov-04 03:00N 44°07' E 028°39'0 0.0
2017-Nov-04 02:30N 44°07' E 028°39'0 0.0
2017-Nov-04 02:00N 44°07' E 028°39'0 0.0
2017-Nov-04 01:30N 44°07' E 028°39'0 0.0
2017-Nov-04 01:00N 44°07' E 028°39'0 0.0
2017-Nov-04 00:30N 44°07' E 028°39'0 0.0
2017-Nov-04 00:00N 44°07' E 028°39'0 0.0
2017-Nov-03 23:30N 44°07' E 028°39'0 0.0
2017-Nov-03 23:00N 44°07' E 028°39'0 0.0
2017-Nov-03 22:30N 44°07' E 028°39'0 0.0
2017-Nov-03 22:00N 44°07' E 028°39'0 0.0
2017-Nov-03 21:30N 44°07' E 028°39'0 0.0
2017-Nov-03 21:00N 44°07' E 028°39'0 0.0
2017-Nov-03 20:30N 44°07' E 028°39'0 0.0
2017-Nov-03 20:00N 44°07' E 028°39'0 0.0
2017-Nov-03 19:30N 44°07' E 028°39'0 0.0
2017-Nov-03 19:00N 44°07' E 028°39'0 0.0
2017-Nov-03 18:30N 44°07' E 028°39'0 0.0
2017-Nov-03 18:00N 44°07' E 028°39'0 0.0
2017-Nov-03 17:30N 44°07' E 028°39'0 0.0
2017-Nov-03 17:00N 44°07' E 028°39'0 0.0
2017-Nov-03 16:30N 44°07' E 028°39'0 0.0
2017-Nov-03 16:00N 44°07' E 028°39'0 0.0
2017-Nov-03 15:30N 44°07' E 028°39'0 0.0
2017-Nov-03 15:00N 44°07' E 028°39'0 0.0
2017-Nov-03 14:30N 44°07' E 028°39'0 0.0
2017-Nov-03 14:00N 44°07' E 028°39'0 0.0
2017-Nov-03 13:30N 44°07' E 028°39'0 0.0
2017-Nov-03 13:00N 44°07' E 028°39'0 0.0
2017-Nov-03 11:54N 44°07' E 028°39'0 0.0
2017-Nov-03 11:30N 44°07' E 028°39'0 0.0
2017-Nov-03 11:00N 44°07' E 028°39'0 0.0
2017-Nov-03 10:30N 44°07' E 028°39'0 0.0
2017-Nov-03 10:00N 44°07' E 028°39'0 0.7
2017-Nov-03 09:30N 44°07' E 028°39'1 2.9
2017-Nov-03 09:00N 44°06' E 028°37'0 0.5
2017-Nov-03 08:30N 44°06' E 028°37'1 2.0
2017-Nov-03 08:00N 44°06' E 028°36'3 5.5
2017-Nov-03 07:26N 44°06' E 028°31'3 5.0
2017-Nov-03 06:44N 44°07' E 028°27'2 5.2
2017-Nov-03 06:18N 44°09' E 028°26'2 5.2
2017-Nov-03 06:00N 44°10' E 028°24'3 5.2
2017-Nov-03 05:30N 44°13' E 028°23'3 5.4
2017-Nov-03 05:00N 44°15' E 028°21'3 5.0
2017-Nov-03 04:30N 44°15' E 028°17'0 0.2
2017-Nov-03 04:00N 44°15' E 028°17'0 0.0
2017-Nov-03 03:30N 44°15' E 028°17'0 0.0
2017-Nov-03 03:00N 44°15' E 028°17'0 0.0
2017-Nov-03 02:30N 44°15' E 028°17'0 0.0
2017-Nov-03 02:00N 44°15' E 028°17'0 0.0
2017-Nov-03 01:30N 44°15' E 028°17'0 0.0
2017-Nov-03 01:00N 44°15' E 028°17'0 0.0
2017-Nov-03 00:30N 44°15' E 028°17'0 0.0
2017-Nov-03 00:00N 44°15' E 028°17'0 0.0
2017-Nov-02 23:30N 44°15' E 028°17'0 0.0
2017-Nov-02 23:00N 44°15' E 028°17'0 0.0
2017-Nov-02 22:30N 44°15' E 028°17'0 0.0
2017-Nov-02 22:00N 44°15' E 028°17'0 0.0
2017-Nov-02 21:30N 44°15' E 028°17'0 0.0
2017-Nov-02 21:00N 44°15' E 028°17'0 0.0
2017-Nov-02 20:30N 44°15' E 028°17'0 0.0
2017-Nov-02 20:00N 44°15' E 028°17'2 3.8
2017-Nov-02 19:30N 44°15' E 028°15'3 5.3
2017-Nov-02 19:00N 44°16' E 028°11'3 5.4
2017-Nov-02 18:30N 44°16' E 028°07'  
Track history (hours):
 
Tides and Currents Weather Stations Pressure Air Temp Water Temp Dewpoint Dewpoint Depression Visibility Wind Speed Wind Dir Waves Ship Positions

Quasimodo

Last reported at 2017-Nov-11 15:03 UTC. Time now 2017-Nov-24 20:46 UTC.
Position N 44°17' E 028°04'.
Warning: this ship's position is 13 days out of date.

Length 110 m; draft 0.2 m.

Type: Ship. MMSI: 2525526.

Date/timePositionNaut miles runAvg speedWind from/ knotsBaromVisibWave heightAir tempDewpointWater temp
2017-Nov-11 15:03N 44°17' E 028°04'0 7.0
2017-Nov-11 15:00N 44°17' E 028°04'3 6.9
2017-Nov-11 14:30N 44°16' E 028°09'4 7.1
2017-Nov-11 14:00N 44°15' E 028°14'4 7.1
2017-Nov-11 13:30N 44°15' E 028°19'3 6.3
2017-Nov-11 13:00N 44°14' E 028°22'3 6.9
2017-Nov-11 12:30N 44°10' E 028°24'7 6.2
2017-Nov-11 11:26N 44°06' E 028°31'3 6.9
2017-Nov-11 11:00N 44°06' E 028°35'1 2.7
2017-Nov-11 10:31N 44°06' E 028°37'0 0.7
2017-Nov-11 10:00N 44°06' E 028°38'1 2.5
2017-Nov-11 09:30N 44°07' E 028°39'0 0.2
2017-Nov-11 09:00N 44°07' E 028°39'0 0.0
2017-Nov-11 08:31N 44°07' E 028°39'0 0.0
2017-Nov-11 08:00N 44°07' E 028°39'1 1.7
2017-Nov-11 07:30N 44°06' E 028°39'0 0.0
2017-Nov-11 07:00N 44°06' E 028°39'0 0.0
2017-Nov-11 06:30N 44°06' E 028°39'1 1.6
2017-Nov-11 06:00N 44°07' E 028°39'0 0.0
2017-Nov-11 05:30N 44°07' E 028°39'0 0.0
2017-Nov-11 05:00N 44°07' E 028°39'0 0.0
2017-Nov-11 04:30N 44°07' E 028°39'0 0.0
2017-Nov-11 04:00N 44°07' E 028°39'0 0.0
2017-Nov-11 03:30N 44°07' E 028°39'0 0.0
2017-Nov-11 03:00N 44°07' E 028°39'0 0.0
2017-Nov-11 02:30N 44°07' E 028°39'0 0.0
2017-Nov-11 02:00N 44°07' E 028°39'0 0.0
2017-Nov-11 01:30N 44°07' E 028°39'0 0.0
2017-Nov-11 01:00N 44°07' E 028°39'0 0.0
2017-Nov-11 00:30N 44°07' E 028°39'0 0.0
2017-Nov-11 00:00N 44°07' E 028°39'0 0.0
2017-Nov-10 23:30N 44°07' E 028°39'0 0.0
2017-Nov-10 23:00N 44°07' E 028°39'0 0.0
2017-Nov-10 22:30N 44°07' E 028°39'2 3.5
2017-Nov-10 22:00N 44°08' E 028°39'1 2.3
2017-Nov-10 21:30N 44°10' E 028°39'0 0.0
2017-Nov-10 21:00N 44°10' E 028°39'0 0.0
2017-Nov-10 20:30N 44°10' E 028°39'0 0.0
2017-Nov-10 20:00N 44°10' E 028°39'0 0.0
2017-Nov-10 19:30N 44°10' E 028°39'0 0.0
2017-Nov-10 19:00N 44°10' E 028°39'0 0.0
2017-Nov-10 18:30N 44°10' E 028°39'0 0.0
2017-Nov-10 18:00N 44°10' E 028°39'0 0.0
2017-Nov-10 17:30N 44°10' E 028°39'0 0.0
2017-Nov-10 17:00N 44°10' E 028°39'0 0.0
2017-Nov-10 16:30N 44°10' E 028°39'0 0.0
2017-Nov-10 16:00N 44°10' E 028°39'0 0.0
2017-Nov-10 15:30N 44°10' E 028°39'0 0.0
2017-Nov-10 15:00N 44°10' E 028°39'0 0.0
2017-Nov-10 14:30N 44°10' E 028°39'0 0.0
2017-Nov-10 14:00N 44°10' E 028°39'0 0.0
2017-Nov-10 13:30N 44°10' E 028°39'0 0.0
2017-Nov-10 13:00N 44°10' E 028°39'0 0.0
2017-Nov-10 12:30N 44°10' E 028°39'0 0.0
2017-Nov-10 12:00N 44°10' E 028°39'0 0.0
2017-Nov-10 11:30N 44°10' E 028°39'0 0.0
2017-Nov-10 11:00N 44°10' E 028°39'0 0.0
2017-Nov-10 10:30N 44°10' E 028°39'0 0.0
2017-Nov-10 10:00N 44°10' E 028°39'0 0.1
2017-Nov-10 09:30N 44°10' E 028°39'0 0.0
2017-Nov-10 09:00N 44°10' E 028°39'0 0.0
2017-Nov-10 08:30N 44°10' E 028°39'0 0.0
2017-Nov-10 08:00N 44°10' E 028°39'0 0.0
2017-Nov-10 07:30N 44°10' E 028°39'0 0.0
2017-Nov-10 07:01N 44°10' E 028°39'0 0.0
2017-Nov-10 06:30N 44°10' E 028°39'0 0.0
2017-Nov-10 06:00N 44°10' E 028°39'0 0.0
2017-Nov-10 05:30N 44°10' E 028°39'0 0.0
2017-Nov-10 05:00N 44°10' E 028°39'0 0.0
2017-Nov-10 04:31N 44°10' E 028°39'0 0.0
2017-Nov-10 04:00N 44°10' E 028°39'0 0.0
2017-Nov-10 03:30N 44°10' E 028°39'0 0.0
2017-Nov-10 03:00N 44°10' E 028°39'0 0.0
2017-Nov-10 02:30N 44°10' E 028°39'0 0.0
2017-Nov-10 02:00N 44°10' E 028°39'0 0.0
2017-Nov-10 01:30N 44°10' E 028°39'0 0.0
2017-Nov-10 01:00N 44°10' E 028°39'0 0.0
2017-Nov-10 00:30N 44°10' E 028°39'0 0.0
2017-Nov-10 00:00N 44°10' E 028°39'0 0.0
2017-Nov-09 23:30N 44°10' E 028°39'0 0.0
2017-Nov-09 23:00N 44°10' E 028°39'0 0.0
2017-Nov-09 22:30N 44°10' E 028°39'0 0.0
2017-Nov-09 22:00N 44°10' E 028°39'0 0.0
2017-Nov-09 21:30N 44°10' E 028°39'0 0.0
2017-Nov-09 21:01N 44°10' E 028°39'0 0.0
2017-Nov-09 20:30N 44°10' E 028°39'0 0.0
2017-Nov-09 20:00N 44°10' E 028°39'0 0.0
2017-Nov-09 19:30N 44°10' E 028°39'0 0.0
2017-Nov-09 19:00N 44°10' E 028°39'0 0.0
2017-Nov-09 18:30N 44°10' E 028°39'0 0.0
2017-Nov-09 18:01N 44°10' E 028°39'0 0.0
2017-Nov-09 17:30N 44°10' E 028°39'0 0.0
2017-Nov-09 17:00N 44°10' E 028°39'0 0.0
2017-Nov-09 16:31N 44°10' E 028°39'0 0.0
2017-Nov-09 16:00N 44°10' E 028°39'0 0.0
2017-Nov-09 15:30N 44°10' E 028°39'0 0.0
2017-Nov-09 15:00N 44°10' E 028°39'0 0.0
2017-Nov-09 14:30N 44°10' E 028°39'0 0.0
2017-Nov-09 14:00N 44°10' E 028°39'0 0.0
2017-Nov-09 13:30N 44°10' E 028°39'0 0.0
2017-Nov-09 13:00N 44°10' E 028°39'0 0.0
2017-Nov-09 12:30N 44°10' E 028°39'0 0.0
2017-Nov-09 12:00N 44°10' E 028°39'0 0.0
2017-Nov-09 11:30N 44°10' E 028°39'0 0.0
2017-Nov-09 11:00N 44°10' E 028°39'0 0.0
2017-Nov-09 10:30N 44°10' E 028°39'0 0.0
2017-Nov-09 10:01N 44°10' E 028°39'1 2.1
2017-Nov-09 09:30N 44°09' E 028°40'2 4.6
2017-Nov-09 09:00N 44°07' E 028°39'0 0.0
2017-Nov-09 08:30N 44°07' E 028°39'0 0.0
2017-Nov-09 08:00N 44°07' E 028°39'0 0.0
2017-Nov-09 07:30N 44°07' E 028°39'0 0.0
2017-Nov-09 07:00N 44°07' E 028°39'0 0.0
2017-Nov-09 06:31N 44°07' E 028°39'0 0.0
2017-Nov-09 06:00N 44°07' E 028°39'0 0.0
2017-Nov-09 05:30N 44°07' E 028°39'0 0.0
2017-Nov-09 05:00N 44°07' E 028°39'0 0.0
2017-Nov-09 04:30N 44°07' E 028°39'0 0.0
2017-Nov-09 04:00N 44°07' E 028°39'0 0.0
2017-Nov-09 03:30N 44°07' E 028°39'0 0.0
2017-Nov-09 03:00N 44°07' E 028°39'0 0.0
2017-Nov-09 02:31N 44°07' E 028°39'0 0.0
2017-Nov-09 02:01N 44°07' E 028°39'0 0.0
2017-Nov-09 01:30N 44°07' E 028°39'0 0.0
2017-Nov-09 01:00N 44°07' E 028°39'0 0.0
2017-Nov-09 00:30N 44°07' E 028°39'0 0.0
2017-Nov-09 00:01N 44°07' E 028°39'0 0.0
2017-Nov-08 23:30N 44°07' E 028°39'0 0.0
2017-Nov-08 23:00N 44°07' E 028°39'0 0.0
2017-Nov-08 22:30N 44°07' E 028°39'0 0.0
2017-Nov-08 22:00N 44°07' E 028°39'0 0.0
2017-Nov-08 21:30N 44°07' E 028°39'0 0.0
2017-Nov-08 21:00N 44°07' E 028°39'0 0.0
2017-Nov-08 20:30N 44°07' E 028°39'0 0.0
2017-Nov-08 20:00N 44°07' E 028°39'0 0.0
2017-Nov-08 19:31N 44°07' E 028°39'0 0.0
2017-Nov-08 19:00N 44°07' E 028°39'0 0.0
2017-Nov-08 18:30N 44°07' E 028°39'0 0.0
2017-Nov-08 18:00N 44°07' E 028°39'0 0.0
2017-Nov-08 17:30N 44°07' E 028°39'0 0.0
2017-Nov-08 17:00N 44°07' E 028°39'0 0.0
2017-Nov-08 16:30N 44°07' E 028°39'0 0.0
2017-Nov-08 16:00N 44°07' E 028°39'0 0.0
2017-Nov-08 15:30N 44°07' E 028°39'0 0.0
2017-Nov-08 15:01N 44°07' E 028°39'0 0.0
2017-Nov-08 14:30N 44°07' E 028°39'0 0.0
2017-Nov-08 14:00N 44°07' E 028°39'0 0.0
2017-Nov-08 13:31N 44°07' E 028°39'0 0.0
2017-Nov-08 13:00N 44°07' E 028°39'0 0.0
2017-Nov-08 12:30N 44°07' E 028°39'0 0.0
2017-Nov-08 12:00N 44°07' E 028°39'0 0.0
2017-Nov-08 11:31N 44°07' E 028°39'0 0.0
2017-Nov-08 11:00N 44°07' E 028°39'0 0.0
2017-Nov-08 10:30N 44°07' E 028°39'0 0.0
2017-Nov-08 10:00N 44°07' E 028°39'0 0.0
2017-Nov-08 09:30N 44°07' E 028°39'0 0.0
2017-Nov-08 09:00N 44°07' E 028°39'0 0.0
2017-Nov-08 08:31N 44°07' E 028°39'0 0.0
2017-Nov-08 08:00N 44°07' E 028°39'0 0.0
2017-Nov-08 07:30N 44°07' E 028°39'0 0.0
2017-Nov-08 07:01N 44°07' E 028°39'0 0.0
2017-Nov-08 06:30N 44°07' E 028°39'0 0.0
2017-Nov-08 06:00N 44°07' E 028°39'0 0.0
2017-Nov-08 05:30N 44°07' E 028°39'0 0.0
2017-Nov-08 05:01N 44°07' E 028°39'0 0.0
2017-Nov-08 04:30N 44°07' E 028°39'0 0.0
2017-Nov-08 04:01N 44°07' E 028°39'0 0.0
2017-Nov-08 03:30N 44°07' E 028°39'0 0.0
2017-Nov-08 03:01N 44°07' E 028°39'0 0.0
2017-Nov-08 02:30N 44°07' E 028°39'0 0.0
2017-Nov-08 02:01N 44°07' E 028°39'0 0.0
2017-Nov-08 01:30N 44°07' E 028°39'0 0.0
2017-Nov-08 01:00N 44°07' E 028°39'0 0.0
2017-Nov-08 00:31N 44°07' E 028°39'0 0.0
2017-Nov-08 00:00N 44°07' E 028°39'0 0.0
2017-Nov-07 23:30N 44°07' E 028°39'0 0.0
2017-Nov-07 23:00N 44°07' E 028°39'0 0.0
2017-Nov-07 22:30N 44°07' E 028°39'0 0.0
2017-Nov-07 22:00N 44°07' E 028°39'0 0.0
2017-Nov-07 21:30N 44°07' E 028°39'0 0.0
2017-Nov-07 21:01N 44°07' E 028°39'0 0.0
2017-Nov-07 20:30N 44°07' E 028°39'0 0.0
2017-Nov-07 20:00N 44°07' E 028°39'0 0.0
2017-Nov-07 19:30N 44°07' E 028°39'0 0.0
2017-Nov-07 19:00N 44°07' E 028°39'0 0.0
2017-Nov-07 18:30N 44°07' E 028°39'0 0.0
2017-Nov-07 18:00N 44°07' E 028°39'0 0.0
2017-Nov-07 17:30N 44°07' E 028°39'0 0.0
2017-Nov-07 17:00N 44°07' E 028°39'0 0.0
2017-Nov-07 16:30N 44°07' E 028°39'0 0.0
2017-Nov-07 16:00N 44°07' E 028°39'0 0.0
2017-Nov-07 15:30N 44°07' E 028°39'0 0.0
2017-Nov-07 15:01N 44°07' E 028°39'0 0.0
2017-Nov-07 14:30N 44°07' E 028°39'0 0.0
2017-Nov-07 14:00N 44°07' E 028°39'0 0.0
2017-Nov-07 13:30N 44°07' E 028°39'0 0.0
2017-Nov-07 13:00N 44°07' E 028°39'0 0.0
2017-Nov-07 12:30N 44°07' E 028°39'0 0.0
2017-Nov-07 12:00N 44°07' E 028°39'0 0.0
2017-Nov-07 11:30N 44°07' E 028°39'0 0.0
2017-Nov-07 11:00N 44°07' E 028°39'0 0.0
2017-Nov-07 10:30N 44°07' E 028°39'0 0.0
2017-Nov-07 10:00N 44°07' E 028°39'0 0.0
2017-Nov-07 09:31N 44°07' E 028°39'0 0.0
2017-Nov-07 09:00N 44°07' E 028°39'0 0.0
2017-Nov-07 08:30N 44°07' E 028°39'0 0.0
2017-Nov-07 08:00N 44°07' E 028°39'0 0.0
2017-Nov-07 07:30N 44°07' E 028°39'0 0.0
2017-Nov-07 07:00N 44°07' E 028°39'0 0.0
2017-Nov-07 06:30N 44°07' E 028°39'0 0.0
2017-Nov-07 06:00N 44°07' E 028°39'0 0.0
2017-Nov-07 05:30N 44°07' E 028°39'0 0.0
2017-Nov-07 05:00N 44°07' E 028°39'0 0.0
2017-Nov-07 04:30N 44°07' E 028°39'0 0.0
2017-Nov-07 04:00N 44°07' E 028°39'0 0.0
2017-Nov-07 03:30N 44°07' E 028°39'0 0.0
2017-Nov-07 03:00N 44°07' E 028°39'0 0.0
2017-Nov-07 02:30N 44°07' E 028°39'0 0.0
2017-Nov-07 02:00N 44°07' E 028°39'0 0.0
2017-Nov-07 01:30N 44°07' E 028°39'0 0.0
2017-Nov-07 01:00N 44°07' E 028°39'0 0.0
2017-Nov-07 00:30N 44°07' E 028°39'0 0.0
2017-Nov-07 00:00N 44°07' E 028°39'0 0.0
2017-Nov-06 23:30N 44°07' E 028°39'0 0.0
2017-Nov-06 23:00N 44°07' E 028°39'0 0.0
2017-Nov-06 22:30N 44°07' E 028°39'0 0.0
2017-Nov-06 22:00N 44°07' E 028°39'0 0.0
2017-Nov-06 21:30N 44°07' E 028°39'0 0.0
2017-Nov-06 21:00N 44°07' E 028°39'0 0.0
2017-Nov-06 20:30N 44°07' E 028°39'0 0.0
2017-Nov-06 02:30N 44°07' E 028°39'0 0.0
2017-Nov-06 02:00N 44°07' E 028°39'0 0.0
2017-Nov-06 01:30N 44°07' E 028°39'0 0.0
2017-Nov-06 01:00N 44°07' E 028°39'0 0.0
2017-Nov-06 00:30N 44°07' E 028°39'0 0.0
2017-Nov-06 00:00N 44°07' E 028°39'0 0.0
2017-Nov-05 23:30N 44°07' E 028°39'0 0.0
2017-Nov-05 23:00N 44°07' E 028°39'0 0.0
2017-Nov-05 22:30N 44°07' E 028°39'0 0.0
2017-Nov-05 22:00N 44°07' E 028°39'0 0.0
2017-Nov-05 21:30N 44°07' E 028°39'0 0.0
2017-Nov-05 21:00N 44°07' E 028°39'0 0.0
2017-Nov-05 20:30N 44°07' E 028°39'0 0.0
2017-Nov-05 20:00N 44°07' E 028°39'0 0.0
2017-Nov-05 19:30N 44°07' E 028°39'0 0.0
2017-Nov-05 19:00N 44°07' E 028°39'0 0.0
2017-Nov-05 18:30N 44°07' E 028°39'0 0.0
2017-Nov-05 18:00N 44°07' E 028°39'0 0.0
2017-Nov-05 17:30N 44°07' E 028°39'0 0.0
2017-Nov-05 17:00N 44°07' E 028°39'0 0.0
2017-Nov-05 16:30N 44°07' E 028°39'0 0.0
2017-Nov-05 16:00N 44°07' E 028°39'0 0.0
2017-Nov-05 15:30N 44°07' E 028°39'0 0.0
2017-Nov-05 15:00N 44°07' E 028°39'0 0.0
2017-Nov-05 14:30N 44°07' E 028°39'0 0.0
2017-Nov-05 14:00N 44°07' E 028°39'0 0.0
2017-Nov-05 13:31N 44°07' E 028°39'0 0.0
2017-Nov-05 13:00N 44°07' E 028°39'0 0.0
2017-Nov-05 12:30N 44°07' E 028°39'0 0.0
2017-Nov-05 12:00N 44°07' E 028°39'0 0.0
2017-Nov-05 11:30N 44°07' E 028°39'0 0.0
2017-Nov-05 11:00N 44°07' E 028°39'0 0.0
2017-Nov-05 10:30N 44°07' E 028°39'0 0.0
2017-Nov-05 10:00N 44°07' E 028°39'0 0.0
2017-Nov-05 09:30N 44°07' E 028°39'0 0.0
2017-Nov-05 09:00N 44°07' E 028°39'0 0.0
2017-Nov-05 08:30N 44°07' E 028°39'0 0.0
2017-Nov-05 08:00N 44°07' E 028°39'0 0.0
2017-Nov-05 07:30N 44°07' E 028°39'0 0.0
2017-Nov-05 07:00N 44°07' E 028°39'0 0.0
2017-Nov-05 06:30N 44°07' E 028°39'0 0.0
2017-Nov-05 06:00N 44°07' E 028°39'0 0.0
2017-Nov-05 05:30N 44°07' E 028°39'0 0.0
2017-Nov-05 05:00N 44°07' E 028°39'0 0.0
2017-Nov-05 04:30N 44°07' E 028°39'0 0.0
2017-Nov-05 04:00N 44°07' E 028°39'0 0.0
2017-Nov-05 03:30N 44°07' E 028°39'0 0.0
2017-Nov-05 03:00N 44°07' E 028°39'0 0.0
2017-Nov-05 02:30N 44°07' E 028°39'0 0.0
2017-Nov-05 02:00N 44°07' E 028°39'0 0.0
2017-Nov-05 01:30N 44°07' E 028°39'0 0.0
2017-Nov-05 01:00N 44°07' E 028°39'0 0.0
2017-Nov-05 00:30N 44°07' E 028°39'0 0.0
2017-Nov-05 00:00N 44°07' E 028°39'0 0.0
2017-Nov-04 23:30N 44°07' E 028°39'0 0.0
2017-Nov-04 23:00N 44°07' E 028°39'0 0.0
2017-Nov-04 22:30N 44°07' E 028°39'0 0.0
2017-Nov-04 22:00N 44°07' E 028°39'0 0.0
2017-Nov-04 21:30N 44°07' E 028°39'0 0.0
2017-Nov-04 21:00N 44°07' E 028°39'0 0.0
2017-Nov-04 20:30N 44°07' E 028°39'0 0.0
2017-Nov-04 20:00N 44°07' E 028°39'0 0.0
2017-Nov-04 19:30N 44°07' E 028°39'0 0.0
2017-Nov-04 19:00N 44°07' E 028°39'0 0.0
2017-Nov-04 18:30N 44°07' E 028°39'0 0.0
2017-Nov-04 18:00N 44°07' E 028°39'0 0.0
2017-Nov-04 17:30N 44°07' E 028°39'0 0.0
2017-Nov-04 17:00N 44°07' E 028°39'0 0.0
2017-Nov-04 16:30N 44°07' E 028°39'0 0.0
2017-Nov-04 16:00N 44°07' E 028°39'0 0.0
2017-Nov-04 15:30N 44°07' E 028°39'0 0.0
2017-Nov-04 15:00N 44°07' E 028°39'0 0.0
2017-Nov-04 14:30N 44°07' E 028°39'0 0.0
2017-Nov-04 14:00N 44°07' E 028°39'0 0.0
2017-Nov-04 13:30N 44°07' E 028°39'0 0.0
2017-Nov-04 13:00N 44°07' E 028°39'0 0.0
2017-Nov-04 12:30N 44°07' E 028°39'0 0.0
2017-Nov-04 12:00N 44°07' E 028°39'0 0.0
2017-Nov-04 11:30N 44°07' E 028°39'0 0.0
2017-Nov-04 11:00N 44°07' E 028°39'0 0.0
2017-Nov-04 10:30N 44°07' E 028°39'0 0.0
2017-Nov-04 10:00N 44°07' E 028°39'0 0.0
2017-Nov-04 09:30N 44°07' E 028°39'0 0.0
2017-Nov-04 09:00N 44°07' E 028°39'0 0.0
2017-Nov-04 08:30N 44°07' E 028°39'0 0.0
2017-Nov-04 08:00N 44°07' E 028°39'0 0.0
2017-Nov-04 07:31N 44°07' E 028°39'0 0.0
2017-Nov-04 07:00N 44°07' E 028°39'0 0.0
2017-Nov-04 06:30N 44°07' E 028°39'0 0.0
2017-Nov-04 06:00N 44°07' E 028°39'0 0.0
2017-Nov-04 05:30N 44°07' E 028°39'0 0.0
2017-Nov-04 05:00N 44°07' E 028°39'0 0.0
2017-Nov-04 04:30N 44°07' E 028°39'0 0.0
2017-Nov-04 04:00N 44°07' E 028°39'0 0.0
2017-Nov-04 03:30N 44°07' E 028°39'0 0.0
2017-Nov-04 03:00N 44°07' E 028°39'0 0.0
2017-Nov-04 02:30N 44°07' E 028°39'0 0.0
2017-Nov-04 02:00N 44°07' E 028°39'0 0.0
2017-Nov-04 01:30N 44°07' E 028°39'0 0.0
2017-Nov-04 01:00N 44°07' E 028°39'0 0.0
2017-Nov-04 00:30N 44°07' E 028°39'0 0.0
2017-Nov-04 00:00N 44°07' E 028°39'0 0.0
2017-Nov-03 23:30N 44°07' E 028°39'0 0.0
2017-Nov-03 23:00N 44°07' E 028°39'0 0.0
2017-Nov-03 22:30N 44°07' E 028°39'0 0.0
2017-Nov-03 22:00N 44°07' E 028°39'0 0.0
2017-Nov-03 21:30N 44°07' E 028°39'0 0.0
2017-Nov-03 21:00N 44°07' E 028°39'0 0.0
2017-Nov-03 20:30N 44°07' E 028°39'0 0.0
2017-Nov-03 20:00N 44°07' E 028°39'0 0.0
2017-Nov-03 19:30N 44°07' E 028°39'0 0.0
2017-Nov-03 19:00N 44°07' E 028°39'0 0.0
2017-Nov-03 18:30N 44°07' E 028°39'0 0.0
2017-Nov-03 18:00N 44°07' E 028°39'0 0.0
2017-Nov-03 17:30N 44°07' E 028°39'0 0.0
2017-Nov-03 17:00N 44°07' E 028°39'0 0.0
2017-Nov-03 16:30N 44°07' E 028°39'0 0.0
2017-Nov-03 16:00N 44°07' E 028°39'0 0.0
2017-Nov-03 15:30N 44°07' E 028°39'0 0.0
2017-Nov-03 15:00N 44°07' E 028°39'0 0.0
2017-Nov-03 14:30N 44°07' E 028°39'0 0.0
2017-Nov-03 14:00N 44°07' E 028°39'0 0.0
2017-Nov-03 13:30N 44°07' E 028°39'0 0.0
2017-Nov-03 13:00N 44°07' E 028°39'0 0.0
2017-Nov-03 11:54N 44°07' E 028°39'0 0.0
2017-Nov-03 11:30N 44°07' E 028°39'0 0.0
2017-Nov-03 11:00N 44°07' E 028°39'0 0.0
2017-Nov-03 10:30N 44°07' E 028°39'0 0.0
2017-Nov-03 10:00N 44°07' E 028°39'0 0.7
2017-Nov-03 09:30N 44°07' E 028°39'1 2.9
2017-Nov-03 09:00N 44°06' E 028°37'0 0.5
2017-Nov-03 08:30N 44°06' E 028°37'1 2.0
2017-Nov-03 08:00N 44°06' E 028°36'3 5.5
2017-Nov-03 07:26N 44°06' E 028°31'3 5.0
2017-Nov-03 06:44N 44°07' E 028°27'2 5.2
2017-Nov-03 06:18N 44°09' E 028°26'2 5.2
2017-Nov-03 06:00N 44°10' E 028°24'3 5.2
2017-Nov-03 05:30N 44°13' E 028°23'3 5.4
2017-Nov-03 05:00N 44°15' E 028°21'3 5.0
2017-Nov-03 04:30N 44°15' E 028°17'0 0.2
2017-Nov-03 04:00N 44°15' E 028°17'0 0.0
2017-Nov-03 03:30N 44°15' E 028°17'0 0.0
2017-Nov-03 03:00N 44°15' E 028°17'0 0.0
2017-Nov-03 02:30N 44°15' E 028°17'0 0.0
2017-Nov-03 02:00N 44°15' E 028°17'0 0.0
2017-Nov-03 01:30N 44°15' E 028°17'0 0.0
2017-Nov-03 01:00N 44°15' E 028°17'0 0.0
2017-Nov-03 00:30N 44°15' E 028°17'0 0.0
2017-Nov-03 00:00N 44°15' E 028°17'0 0.0
2017-Nov-02 23:30N 44°15' E 028°17'0 0.0
2017-Nov-02 23:00N 44°15' E 028°17'0 0.0
2017-Nov-02 22:30N 44°15' E 028°17'0 0.0
2017-Nov-02 22:00N 44°15' E 028°17'0 0.0
2017-Nov-02 21:30N 44°15' E 028°17'0 0.0
2017-Nov-02 21:00N 44°15' E 028°17'0 0.0
2017-Nov-02 20:30N 44°15' E 028°17'0 0.0
2017-Nov-02 20:00N 44°15' E 028°17'2 3.8
2017-Nov-02 19:30N 44°15' E 028°15'3 5.3
2017-Nov-02 19:00N 44°16' E 028°11'3 5.4
2017-Nov-02 18:30N 44°16' E 028°07'  

Dump ship's entire track history